sensor_id;sensor_type;location;lat;lon;timestamp;P1;durP1;ratioP1;P2;durP2;ratioP2
55170;SDS011;41060;47.510;8.680;2023-12-29T00:01:21;3.80;;;2.10;;
55170;SDS011;41060;47.510;8.680;2023-12-29T00:03:48;3.95;;;2.63;;
55170;SDS011;41060;47.510;8.680;2023-12-29T00:06:15;4.55;;;2.35;;
55170;SDS011;41060;47.510;8.680;2023-12-29T00:08:41;5.82;;;2.33;;
55170;SDS011;41060;47.510;8.680;2023-12-29T00:11:15;4.10;;;2.50;;
55170;SDS011;41060;47.510;8.680;2023-12-29T00:13:44;6.55;;;2.15;;
55170;SDS011;41060;47.510;8.680;2023-12-29T00:16:11;4.82;;;1.88;;
55170;SDS011;41060;47.510;8.680;2023-12-29T00:18:38;5.72;;;2.67;;
55170;SDS011;41060;47.510;8.680;2023-12-29T00:21:04;5.90;;;1.92;;
55170;SDS011;41060;47.510;8.680;2023-12-29T00:23:33;4.57;;;2.15;;
55170;SDS011;41060;47.510;8.680;2023-12-29T00:25:59;3.72;;;2.20;;
55170;SDS011;41060;47.510;8.680;2023-12-29T00:28:26;5.88;;;1.90;;
55170;SDS011;41060;47.510;8.680;2023-12-29T00:30:56;5.85;;;2.08;;
55170;SDS011;41060;47.510;8.680;2023-12-29T00:33:23;3.65;;;1.80;;
55170;SDS011;41060;47.510;8.680;2023-12-29T00:35:50;2.92;;;1.85;;
55170;SDS011;41060;47.510;8.680;2023-12-29T00:38:17;4.70;;;2.15;;
55170;SDS011;41060;47.510;8.680;2023-12-29T00:40:43;3.90;;;1.77;;
55170;SDS011;41060;47.510;8.680;2023-12-29T00:43:10;4.97;;;2.30;;
55170;SDS011;41060;47.510;8.680;2023-12-29T00:45:37;8.20;;;2.95;;
55170;SDS011;41060;47.510;8.680;2023-12-29T00:48:06;5.22;;;2.70;;
55170;SDS011;41060;47.510;8.680;2023-12-29T00:50:33;4.57;;;2.90;;
55170;SDS011;41060;47.510;8.680;2023-12-29T00:53:00;8.32;;;2.05;;
55170;SDS011;41060;47.510;8.680;2023-12-29T00:55:26;2.55;;;1.77;;
55170;SDS011;41060;47.510;8.680;2023-12-29T00:57:53;4.78;;;2.38;;
55170;SDS011;41060;47.510;8.680;2023-12-29T01:00:20;7.60;;;2.58;;
55170;SDS011;41060;47.510;8.680;2023-12-29T01:02:47;5.43;;;3.08;;
55170;SDS011;41060;47.510;8.680;2023-12-29T01:05:16;5.30;;;3.05;;
55170;SDS011;41060;47.510;8.680;2023-12-29T01:07:43;7.07;;;2.92;;
55170;SDS011;41060;47.510;8.680;2023-12-29T01:10:09;6.72;;;3.08;;
55170;SDS011;41060;47.510;8.680;2023-12-29T01:12:36;6.75;;;2.28;;
55170;SDS011;41060;47.510;8.680;2023-12-29T01:15:04;5.55;;;3.25;;
55170;SDS011;41060;47.510;8.680;2023-12-29T01:17:31;5.70;;;3.00;;
55170;SDS011;41060;47.510;8.680;2023-12-29T01:19:58;6.43;;;2.92;;
55170;SDS011;41060;47.510;8.680;2023-12-29T01:22:26;8.88;;;3.90;;
55170;SDS011;41060;47.510;8.680;2023-12-29T01:24:53;4.82;;;2.20;;
55170;SDS011;41060;47.510;8.680;2023-12-29T01:27:19;4.13;;;2.40;;
55170;SDS011;41060;47.510;8.680;2023-12-29T01:29:47;6.15;;;2.72;;
55170;SDS011;41060;47.510;8.680;2023-12-29T01:32:13;3.58;;;2.13;;
55170;SDS011;41060;47.510;8.680;2023-12-29T01:34:40;4.28;;;2.10;;
55170;SDS011;41060;47.510;8.680;2023-12-29T01:37:07;4.68;;;2.13;;
55170;SDS011;41060;47.510;8.680;2023-12-29T01:39:41;2.70;;;1.80;;
55170;SDS011;41060;47.510;8.680;2023-12-29T01:42:08;5.75;;;2.30;;
55170;SDS011;41060;47.510;8.680;2023-12-29T01:44:36;4.55;;;2.08;;
55170;SDS011;41060;47.510;8.680;2023-12-29T01:47:03;3.13;;;1.63;;
55170;SDS011;41060;47.510;8.680;2023-12-29T01:49:39;4.28;;;2.30;;
55170;SDS011;41060;47.510;8.680;2023-12-29T01:52:06;3.67;;;2.05;;
55170;SDS011;41060;47.510;8.680;2023-12-29T01:54:34;2.65;;;1.80;;
55170;SDS011;41060;47.510;8.680;2023-12-29T01:57:05;2.53;;;1.17;;
55170;SDS011;41060;47.510;8.680;2023-12-29T01:59:33;3.17;;;2.15;;
55170;SDS011;41060;47.510;8.680;2023-12-29T02:02:02;3.80;;;1.88;;
55170;SDS011;41060;47.510;8.680;2023-12-29T02:04:30;4.50;;;2.25;;
55170;SDS011;41060;47.510;8.680;2023-12-29T02:06:57;3.72;;;1.88;;
55170;SDS011;41060;47.510;8.680;2023-12-29T02:09:24;5.95;;;2.00;;
55170;SDS011;41060;47.510;8.680;2023-12-29T02:11:51;3.55;;;1.85;;
55170;SDS011;41060;47.510;8.680;2023-12-29T02:14:19;4.20;;;2.28;;
55170;SDS011;41060;47.510;8.680;2023-12-29T02:16:49;2.80;;;1.50;;
55170;SDS011;41060;47.510;8.680;2023-12-29T02:19:25;10.20;;;2.03;;
55170;SDS011;41060;47.510;8.680;2023-12-29T02:22:03;3.72;;;1.92;;
55170;SDS011;41060;47.510;8.680;2023-12-29T02:24:30;4.05;;;1.92;;
55170;SDS011;41060;47.510;8.680;2023-12-29T02:27:03;3.22;;;2.13;;
55170;SDS011;41060;47.510;8.680;2023-12-29T02:29:50;3.88;;;1.83;;
55170;SDS011;41060;47.510;8.680;2023-12-29T02:32:36;4.07;;;2.22;;
55170;SDS011;41060;47.510;8.680;2023-12-29T02:35:06;4.28;;;1.63;;
55170;SDS011;41060;47.510;8.680;2023-12-29T02:37:36;2.95;;;2.05;;
55170;SDS011;41060;47.510;8.680;2023-12-29T02:40:03;3.40;;;1.73;;
55170;SDS011;41060;47.510;8.680;2023-12-29T02:42:33;2.63;;;1.80;;
55170;SDS011;41060;47.510;8.680;2023-12-29T02:45:00;3.25;;;1.70;;
55170;SDS011;41060;47.510;8.680;2023-12-29T02:47:27;2.70;;;1.85;;
55170;SDS011;41060;47.510;8.680;2023-12-29T02:49:57;4.20;;;1.88;;
55170;SDS011;41060;47.510;8.680;2023-12-29T02:52:24;7.03;;;2.05;;
55170;SDS011;41060;47.510;8.680;2023-12-29T02:54:50;4.93;;;2.03;;
55170;SDS011;41060;47.510;8.680;2023-12-29T02:57:17;4.43;;;1.85;;
55170;SDS011;41060;47.510;8.680;2023-12-29T02:59:45;3.30;;;1.55;;
55170;SDS011;41060;47.510;8.680;2023-12-29T03:02:12;4.10;;;1.48;;
55170;SDS011;41060;47.510;8.680;2023-12-29T03:04:39;3.92;;;1.70;;
55170;SDS011;41060;47.510;8.680;2023-12-29T03:07:06;2.08;;;1.63;;
55170;SDS011;41060;47.510;8.680;2023-12-29T03:09:32;3.00;;;1.75;;
55170;SDS011;41060;47.510;8.680;2023-12-29T03:11:59;3.65;;;2.00;;
55170;SDS011;41060;47.510;8.680;2023-12-29T03:14:26;2.58;;;1.73;;
55170;SDS011;41060;47.510;8.680;2023-12-29T03:16:54;3.45;;;2.13;;
55170;SDS011;41060;47.510;8.680;2023-12-29T03:19:21;4.40;;;1.80;;
55170;SDS011;41060;47.510;8.680;2023-12-29T03:21:48;4.20;;;1.90;;
55170;SDS011;41060;47.510;8.680;2023-12-29T03:24:14;6.38;;;2.20;;
55170;SDS011;41060;47.510;8.680;2023-12-29T03:26:42;5.05;;;2.08;;
55170;SDS011;41060;47.510;8.680;2023-12-29T03:29:09;5.35;;;1.92;;
55170;SDS011;41060;47.510;8.680;2023-12-29T03:31:36;4.97;;;1.58;;
55170;SDS011;41060;47.510;8.680;2023-12-29T03:34:05;4.50;;;2.60;;
55170;SDS011;41060;47.510;8.680;2023-12-29T03:36:32;6.32;;;1.80;;
55170;SDS011;41060;47.510;8.680;2023-12-29T03:39:01;3.03;;;1.98;;
55170;SDS011;41060;47.510;8.680;2023-12-29T03:41:29;3.97;;;2.22;;
55170;SDS011;41060;47.510;8.680;2023-12-29T03:43:56;3.75;;;2.05;;
55170;SDS011;41060;47.510;8.680;2023-12-29T03:46:24;3.28;;;1.88;;
55170;SDS011;41060;47.510;8.680;2023-12-29T03:48:51;4.00;;;1.60;;
55170;SDS011;41060;47.510;8.680;2023-12-29T03:51:20;3.72;;;1.95;;
55170;SDS011;41060;47.510;8.680;2023-12-29T03:53:46;4.82;;;2.20;;
55170;SDS011;41060;47.510;8.680;2023-12-29T03:56:14;4.57;;;2.08;;
55170;SDS011;41060;47.510;8.680;2023-12-29T03:58:42;5.00;;;2.10;;
55170;SDS011;41060;47.510;8.680;2023-12-29T04:01:09;9.18;;;2.08;;
55170;SDS011;41060;47.510;8.680;2023-12-29T04:03:37;4.07;;;2.30;;
55170;SDS011;41060;47.510;8.680;2023-12-29T04:06:04;3.22;;;1.75;;
55170;SDS011;41060;47.510;8.680;2023-12-29T04:08:32;3.97;;;2.22;;
55170;SDS011;41060;47.510;8.680;2023-12-29T04:11:02;4.80;;;2.15;;
55170;SDS011;41060;47.510;8.680;2023-12-29T04:13:30;3.03;;;1.85;;
55170;SDS011;41060;47.510;8.680;2023-12-29T04:15:57;4.35;;;2.30;;
55170;SDS011;41060;47.510;8.680;2023-12-29T04:18:24;3.17;;;2.03;;
55170;SDS011;41060;47.510;8.680;2023-12-29T04:20:51;4.35;;;2.45;;
55170;SDS011;41060;47.510;8.680;2023-12-29T04:23:17;4.13;;;2.05;;
55170;SDS011;41060;47.510;8.680;2023-12-29T04:25:46;5.07;;;2.25;;
55170;SDS011;41060;47.510;8.680;2023-12-29T04:28:13;7.35;;;3.00;;
55170;SDS011;41060;47.510;8.680;2023-12-29T04:30:39;6.40;;;2.97;;
55170;SDS011;41060;47.510;8.680;2023-12-29T04:33:06;9.68;;;3.20;;
55170;SDS011;41060;47.510;8.680;2023-12-29T04:35:33;5.82;;;2.65;;
55170;SDS011;41060;47.510;8.680;2023-12-29T04:38:00;2.95;;;2.03;;
55170;SDS011;41060;47.510;8.680;2023-12-29T04:40:27;4.80;;;2.22;;
55170;SDS011;41060;47.510;8.680;2023-12-29T04:42:55;4.93;;;2.40;;
55170;SDS011;41060;47.510;8.680;2023-12-29T04:45:21;4.05;;;2.50;;
55170;SDS011;41060;47.510;8.680;2023-12-29T04:47:51;4.50;;;2.58;;
55170;SDS011;41060;47.510;8.680;2023-12-29T04:50:17;2.85;;;2.22;;
55170;SDS011;41060;47.510;8.680;2023-12-29T04:52:44;4.00;;;2.33;;
55170;SDS011;41060;47.510;8.680;2023-12-29T04:55:11;6.03;;;1.65;;
55170;SDS011;41060;47.510;8.680;2023-12-29T04:57:38;3.80;;;2.40;;
55170;SDS011;41060;47.510;8.680;2023-12-29T05:00:07;6.85;;;1.95;;
55170;SDS011;41060;47.510;8.680;2023-12-29T05:02:34;3.50;;;2.13;;
55170;SDS011;41060;47.510;8.680;2023-12-29T05:05:01;6.43;;;2.85;;
55170;SDS011;41060;47.510;8.680;2023-12-29T05:07:28;5.85;;;3.50;;
55170;SDS011;41060;47.510;8.680;2023-12-29T05:09:55;2.88;;;1.92;;
55170;SDS011;41060;47.510;8.680;2023-12-29T05:12:22;2.95;;;2.10;;
55170;SDS011;41060;47.510;8.680;2023-12-29T05:14:48;4.05;;;2.47;;
55170;SDS011;41060;47.510;8.680;2023-12-29T05:17:17;3.75;;;2.47;;
55170;SDS011;41060;47.510;8.680;2023-12-29T05:19:43;5.03;;;1.83;;
55170;SDS011;41060;47.510;8.680;2023-12-29T05:22:10;2.60;;;2.00;;
55170;SDS011;41060;47.510;8.680;2023-12-29T05:24:41;3.38;;;1.88;;
55170;SDS011;41060;47.510;8.680;2023-12-29T05:27:08;7.22;;;2.90;;
55170;SDS011;41060;47.510;8.680;2023-12-29T05:29:35;3.45;;;2.20;;
55170;SDS011;41060;47.510;8.680;2023-12-29T05:32:02;6.40;;;2.53;;
55170;SDS011;41060;47.510;8.680;2023-12-29T05:34:31;2.92;;;2.08;;
55170;SDS011;41060;47.510;8.680;2023-12-29T05:36:57;3.60;;;2.30;;
55170;SDS011;41060;47.510;8.680;2023-12-29T05:39:25;6.65;;;2.40;;
55170;SDS011;41060;47.510;8.680;2023-12-29T05:41:51;5.28;;;2.50;;
55170;SDS011;41060;47.510;8.680;2023-12-29T05:44:18;4.20;;;2.30;;
55170;SDS011;41060;47.510;8.680;2023-12-29T05:46:45;5.97;;;2.70;;
55170;SDS011;41060;47.510;8.680;2023-12-29T05:49:12;6.70;;;3.10;;
55170;SDS011;41060;47.510;8.680;2023-12-29T05:51:40;4.53;;;2.92;;
55170;SDS011;41060;47.510;8.680;2023-12-29T05:54:08;5.78;;;2.05;;
55170;SDS011;41060;47.510;8.680;2023-12-29T05:56:34;3.92;;;2.00;;
55170;SDS011;41060;47.510;8.680;2023-12-29T05:59:01;5.35;;;2.50;;
55170;SDS011;41060;47.510;8.680;2023-12-29T06:01:28;5.38;;;2.45;;
55170;SDS011;41060;47.510;8.680;2023-12-29T06:03:55;3.40;;;2.03;;
55170;SDS011;41060;47.510;8.680;2023-12-29T06:06:22;7.60;;;2.45;;
55170;SDS011;41060;47.510;8.680;2023-12-29T06:08:50;6.88;;;2.15;;
55170;SDS011;41060;47.510;8.680;2023-12-29T06:11:17;4.85;;;2.10;;
55170;SDS011;41060;47.510;8.680;2023-12-29T06:13:44;4.80;;;2.45;;
55170;SDS011;41060;47.510;8.680;2023-12-29T06:16:16;5.90;;;2.88;;
55170;SDS011;41060;47.510;8.680;2023-12-29T06:18:43;5.47;;;2.63;;
55170;SDS011;41060;47.510;8.680;2023-12-29T06:21:11;3.67;;;2.10;;
55170;SDS011;41060;47.510;8.680;2023-12-29T06:23:37;4.25;;;2.17;;
55170;SDS011;41060;47.510;8.680;2023-12-29T06:26:06;4.07;;;2.10;;
55170;SDS011;41060;47.510;8.680;2023-12-29T06:28:40;6.32;;;1.98;;
55170;SDS011;41060;47.510;8.680;2023-12-29T06:31:07;4.95;;;2.60;;
55170;SDS011;41060;47.510;8.680;2023-12-29T06:33:34;4.45;;;2.67;;
55170;SDS011;41060;47.510;8.680;2023-12-29T06:36:01;7.65;;;2.95;;
55170;SDS011;41060;47.510;8.680;2023-12-29T06:38:29;4.97;;;2.78;;
55170;SDS011;41060;47.510;8.680;2023-12-29T06:40:55;5.10;;;2.75;;
55170;SDS011;41060;47.510;8.680;2023-12-29T06:43:24;4.15;;;2.33;;
55170;SDS011;41060;47.510;8.680;2023-12-29T06:45:51;4.50;;;2.38;;
55170;SDS011;41060;47.510;8.680;2023-12-29T06:48:18;4.38;;;2.60;;
55170;SDS011;41060;47.510;8.680;2023-12-29T06:50:45;5.18;;;2.25;;
55170;SDS011;41060;47.510;8.680;2023-12-29T06:53:12;5.25;;;2.78;;
55170;SDS011;41060;47.510;8.680;2023-12-29T06:55:38;7.32;;;2.72;;
55170;SDS011;41060;47.510;8.680;2023-12-29T06:58:06;8.80;;;3.95;;
55170;SDS011;41060;47.510;8.680;2023-12-29T07:00:34;5.93;;;3.00;;
55170;SDS011;41060;47.510;8.680;2023-12-29T07:03:01;3.75;;;2.00;;
55170;SDS011;41060;47.510;8.680;2023-12-29T07:05:29;3.95;;;2.45;;
55170;SDS011;41060;47.510;8.680;2023-12-29T07:07:55;5.80;;;2.85;;
55170;SDS011;41060;47.510;8.680;2023-12-29T07:10:22;3.95;;;3.10;;
55170;SDS011;41060;47.510;8.680;2023-12-29T07:12:49;4.15;;;2.00;;
55170;SDS011;41060;47.510;8.680;2023-12-29T07:15:16;4.45;;;2.47;;
55170;SDS011;41060;47.510;8.680;2023-12-29T07:17:44;3.53;;;2.13;;
55170;SDS011;41060;47.510;8.680;2023-12-29T07:20:11;5.32;;;2.53;;
55170;SDS011;41060;47.510;8.680;2023-12-29T07:22:38;3.40;;;1.98;;
55170;SDS011;41060;47.510;8.680;2023-12-29T07:25:05;3.38;;;1.85;;
55170;SDS011;41060;47.510;8.680;2023-12-29T07:27:32;4.70;;;2.30;;
55170;SDS011;41060;47.510;8.680;2023-12-29T07:29:59;3.83;;;2.30;;
55170;SDS011;41060;47.510;8.680;2023-12-29T07:32:26;4.03;;;2.40;;
55170;SDS011;41060;47.510;8.680;2023-12-29T07:34:55;3.88;;;2.40;;
55170;SDS011;41060;47.510;8.680;2023-12-29T07:37:22;3.83;;;2.08;;
55170;SDS011;41060;47.510;8.680;2023-12-29T07:39:49;5.28;;;2.88;;
55170;SDS011;41060;47.510;8.680;2023-12-29T07:42:17;4.55;;;2.58;;
55170;SDS011;41060;47.510;8.680;2023-12-29T07:44:44;5.32;;;2.13;;
55170;SDS011;41060;47.510;8.680;2023-12-29T07:47:10;3.72;;;1.65;;
55170;SDS011;41060;47.510;8.680;2023-12-29T07:49:38;2.75;;;2.00;;
55170;SDS011;41060;47.510;8.680;2023-12-29T07:52:09;3.65;;;2.17;;
55170;SDS011;41060;47.510;8.680;2023-12-29T07:54:35;3.22;;;1.98;;
55170;SDS011;41060;47.510;8.680;2023-12-29T07:57:03;5.20;;;2.05;;
55170;SDS011;41060;47.510;8.680;2023-12-29T07:59:29;5.40;;;1.70;;
55170;SDS011;41060;47.510;8.680;2023-12-29T08:01:58;3.50;;;1.65;;
55170;SDS011;41060;47.510;8.680;2023-12-29T08:04:26;2.67;;;1.88;;
55170;SDS011;41060;47.510;8.680;2023-12-29T08:06:52;4.43;;;2.30;;
55170;SDS011;41060;47.510;8.680;2023-12-29T08:09:23;4.20;;;2.03;;
55170;SDS011;41060;47.510;8.680;2023-12-29T08:11:54;4.57;;;2.00;;
55170;SDS011;41060;47.510;8.680;2023-12-29T08:14:20;2.58;;;1.58;;
55170;SDS011;41060;47.510;8.680;2023-12-29T08:16:48;4.07;;;2.03;;
55170;SDS011;41060;47.510;8.680;2023-12-29T08:19:17;4.45;;;1.75;;
55170;SDS011;41060;47.510;8.680;2023-12-29T08:21:44;5.78;;;1.65;;
55170;SDS011;41060;47.510;8.680;2023-12-29T08:24:11;4.90;;;2.25;;
55170;SDS011;41060;47.510;8.680;2023-12-29T08:26:43;2.53;;;1.45;;
55170;SDS011;41060;47.510;8.680;2023-12-29T08:29:11;5.13;;;2.38;;
55170;SDS011;41060;47.510;8.680;2023-12-29T08:31:37;7.53;;;2.00;;
55170;SDS011;41060;47.510;8.680;2023-12-29T08:34:05;3.00;;;1.63;;
55170;SDS011;41060;47.510;8.680;2023-12-29T08:36:32;2.65;;;1.70;;
55170;SDS011;41060;47.510;8.680;2023-12-29T08:38:58;3.28;;;1.80;;
55170;SDS011;41060;47.510;8.680;2023-12-29T08:41:25;4.97;;;1.98;;
55170;SDS011;41060;47.510;8.680;2023-12-29T08:43:53;3.42;;;1.67;;
55170;SDS011;41060;47.510;8.680;2023-12-29T08:46:20;2.90;;;1.52;;
55170;SDS011;41060;47.510;8.680;2023-12-29T08:48:48;4.10;;;1.80;;
55170;SDS011;41060;47.510;8.680;2023-12-29T08:51:17;2.75;;;1.40;;
55170;SDS011;41060;47.510;8.680;2023-12-29T08:53:44;3.38;;;1.73;;
55170;SDS011;41060;47.510;8.680;2023-12-29T08:56:11;4.15;;;2.40;;
55170;SDS011;41060;47.510;8.680;2023-12-29T08:58:39;3.45;;;1.95;;
55170;SDS011;41060;47.510;8.680;2023-12-29T09:01:08;3.90;;;1.52;;
55170;SDS011;41060;47.510;8.680;2023-12-29T09:03:35;2.55;;;1.45;;
55170;SDS011;41060;47.510;8.680;2023-12-29T09:06:02;3.88;;;1.80;;
55170;SDS011;41060;47.510;8.680;2023-12-29T09:08:33;2.97;;;1.88;;
55170;SDS011;41060;47.510;8.680;2023-12-29T09:11:00;4.18;;;1.83;;
55170;SDS011;41060;47.510;8.680;2023-12-29T09:13:27;2.88;;;1.70;;
55170;SDS011;41060;47.510;8.680;2023-12-29T09:15:54;1.80;;;1.40;;
55170;SDS011;41060;47.510;8.680;2023-12-29T09:18:23;3.45;;;1.63;;
55170;SDS011;41060;47.510;8.680;2023-12-29T09:20:49;2.55;;;1.27;;
55170;SDS011;41060;47.510;8.680;2023-12-29T09:23:16;2.42;;;1.45;;
55170;SDS011;41060;47.510;8.680;2023-12-29T09:25:43;3.15;;;1.83;;
55170;SDS011;41060;47.510;8.680;2023-12-29T09:28:10;2.88;;;1.30;;
55170;SDS011;41060;47.510;8.680;2023-12-29T09:30:37;2.20;;;1.17;;
55170;SDS011;41060;47.510;8.680;2023-12-29T09:33:04;2.10;;;1.50;;
55170;SDS011;41060;47.510;8.680;2023-12-29T09:35:32;4.47;;;2.00;;
55170;SDS011;41060;47.510;8.680;2023-12-29T09:37:59;4.88;;;2.42;;
55170;SDS011;41060;47.510;8.680;2023-12-29T09:40:27;2.28;;;1.38;;
55170;SDS011;41060;47.510;8.680;2023-12-29T09:42:54;2.15;;;1.42;;
55170;SDS011;41060;47.510;8.680;2023-12-29T09:45:23;3.13;;;1.63;;
55170;SDS011;41060;47.510;8.680;2023-12-29T09:47:51;2.13;;;1.33;;
55170;SDS011;41060;47.510;8.680;2023-12-29T09:50:19;1.77;;;0.98;;
55170;SDS011;41060;47.510;8.680;2023-12-29T09:52:48;5.50;;;1.70;;
55170;SDS011;41060;47.510;8.680;2023-12-29T09:55:19;3.85;;;1.58;;
55170;SDS011;41060;47.510;8.680;2023-12-29T09:57:46;3.47;;;1.75;;
55170;SDS011;41060;47.510;8.680;2023-12-29T10:00:15;2.28;;;1.40;;
55170;SDS011;41060;47.510;8.680;2023-12-29T10:02:43;4.28;;;1.83;;
55170;SDS011;41060;47.510;8.680;2023-12-29T10:05:10;2.45;;;1.05;;
55170;SDS011;41060;47.510;8.680;2023-12-29T10:07:37;6.45;;;1.80;;
55170;SDS011;41060;47.510;8.680;2023-12-29T10:10:07;2.60;;;1.42;;
55170;SDS011;41060;47.510;8.680;2023-12-29T10:12:37;2.65;;;1.40;;
55170;SDS011;41060;47.510;8.680;2023-12-29T10:15:12;2.95;;;1.35;;
55170;SDS011;41060;47.510;8.680;2023-12-29T10:17:46;3.00;;;1.30;;
55170;SDS011;41060;47.510;8.680;2023-12-29T10:20:22;2.25;;;1.73;;
55170;SDS011;41060;47.510;8.680;2023-12-29T10:22:58;4.50;;;1.70;;
55170;SDS011;41060;47.510;8.680;2023-12-29T10:25:35;2.30;;;1.40;;
55170;SDS011;41060;47.510;8.680;2023-12-29T10:28:03;4.68;;;1.70;;
55170;SDS011;41060;47.510;8.680;2023-12-29T10:30:30;3.17;;;1.38;;
55170;SDS011;41060;47.510;8.680;2023-12-29T10:32:58;3.78;;;1.70;;
55170;SDS011;41060;47.510;8.680;2023-12-29T10:35:25;2.90;;;1.58;;
55170;SDS011;41060;47.510;8.680;2023-12-29T10:37:52;3.58;;;1.65;;
55170;SDS011;41060;47.510;8.680;2023-12-29T10:40:19;6.15;;;1.95;;
55170;SDS011;41060;47.510;8.680;2023-12-29T10:42:54;1.88;;;1.08;;
55170;SDS011;41060;47.510;8.680;2023-12-29T10:45:23;2.37;;;1.37;;
55170;SDS011;41060;47.510;8.680;2023-12-29T10:47:50;3.85;;;1.48;;
55170;SDS011;41060;47.510;8.680;2023-12-29T10:50:17;2.08;;;1.38;;
55170;SDS011;41060;47.510;8.680;2023-12-29T10:52:44;4.13;;;2.08;;
55170;SDS011;41060;47.510;8.680;2023-12-29T10:55:11;3.42;;;1.70;;
55170;SDS011;41060;47.510;8.680;2023-12-29T10:57:39;2.20;;;1.48;;
55170;SDS011;41060;47.510;8.680;2023-12-29T11:00:09;3.25;;;1.85;;
55170;SDS011;41060;47.510;8.680;2023-12-29T11:02:38;3.60;;;1.60;;
55170;SDS011;41060;47.510;8.680;2023-12-29T11:05:05;3.83;;;1.52;;
55170;SDS011;41060;47.510;8.680;2023-12-29T11:07:34;2.75;;;1.75;;
55170;SDS011;41060;47.510;8.680;2023-12-29T11:10:02;4.97;;;1.85;;
55170;SDS011;41060;47.510;8.680;2023-12-29T11:12:34;3.10;;;1.70;;
55170;SDS011;41060;47.510;8.680;2023-12-29T11:15:02;2.53;;;1.70;;
55170;SDS011;41060;47.510;8.680;2023-12-29T11:17:32;2.90;;;1.42;;
55170;SDS011;41060;47.510;8.680;2023-12-29T11:20:00;3.45;;;2.05;;
55170;SDS011;41060;47.510;8.680;2023-12-29T11:22:31;2.78;;;2.03;;
55170;SDS011;41060;47.510;8.680;2023-12-29T11:25:01;3.95;;;1.67;;
55170;SDS011;41060;47.510;8.680;2023-12-29T11:27:28;2.63;;;1.58;;
55170;SDS011;41060;47.510;8.680;2023-12-29T11:29:59;3.35;;;1.70;;
55170;SDS011;41060;47.510;8.680;2023-12-29T11:32:32;2.72;;;1.65;;
55170;SDS011;41060;47.510;8.680;2023-12-29T11:35:13;6.20;;;1.80;;
55170;SDS011;41060;47.510;8.680;2023-12-29T11:37:49;3.65;;;1.48;;
55170;SDS011;41060;47.510;8.680;2023-12-29T11:40:30;2.78;;;1.77;;
55170;SDS011;41060;47.510;8.680;2023-12-29T11:43:02;2.95;;;1.50;;
55170;SDS011;41060;47.510;8.680;2023-12-29T11:45:36;2.35;;;1.45;;
55170;SDS011;41060;47.510;8.680;2023-12-29T11:48:06;2.72;;;1.70;;
55170;SDS011;41060;47.510;8.680;2023-12-29T11:50:36;3.72;;;1.92;;
55170;SDS011;41060;47.510;8.680;2023-12-29T11:53:07;2.80;;;1.88;;
55170;SDS011;41060;47.510;8.680;2023-12-29T11:55:35;4.65;;;1.80;;
55170;SDS011;41060;47.510;8.680;2023-12-29T11:58:03;3.42;;;1.45;;
55170;SDS011;41060;47.510;8.680;2023-12-29T12:00:41;2.63;;;1.52;;
55170;SDS011;41060;47.510;8.680;2023-12-29T12:03:19;4.18;;;1.70;;
55170;SDS011;41060;47.510;8.680;2023-12-29T12:05:51;4.07;;;1.63;;
55170;SDS011;41060;47.510;8.680;2023-12-29T12:08:29;3.20;;;1.92;;
55170;SDS011;41060;47.510;8.680;2023-12-29T12:10:58;3.00;;;1.90;;
55170;SDS011;41060;47.510;8.680;2023-12-29T12:14:02;3.78;;;1.45;;
55170;SDS011;41060;47.510;8.680;2023-12-29T12:16:48;6.15;;;1.92;;
55170;SDS011;41060;47.510;8.680;2023-12-29T12:19:17;2.28;;;1.15;;
55170;SDS011;41060;47.510;8.680;2023-12-29T12:21:46;1.73;;;1.00;;
55170;SDS011;41060;47.510;8.680;2023-12-29T12:24:14;2.70;;;1.63;;
55170;SDS011;41060;47.510;8.680;2023-12-29T12:26:47;2.35;;;1.30;;
55170;SDS011;41060;47.510;8.680;2023-12-29T12:29:18;1.35;;;0.85;;
55170;SDS011;41060;47.510;8.680;2023-12-29T12:31:51;2.17;;;1.25;;
55170;SDS011;41060;47.510;8.680;2023-12-29T12:34:20;2.00;;;1.65;;
55170;SDS011;41060;47.510;8.680;2023-12-29T12:36:48;1.85;;;1.15;;
55170;SDS011;41060;47.510;8.680;2023-12-29T12:39:15;3.30;;;1.67;;
55170;SDS011;41060;47.510;8.680;2023-12-29T12:41:44;4.22;;;1.63;;
55170;SDS011;41060;47.510;8.680;2023-12-29T12:44:11;3.63;;;1.40;;
55170;SDS011;41060;47.510;8.680;2023-12-29T12:46:40;3.65;;;1.27;;
55170;SDS011;41060;47.510;8.680;2023-12-29T12:49:11;1.92;;;1.20;;
55170;SDS011;41060;47.510;8.680;2023-12-29T12:51:40;2.95;;;1.65;;
55170;SDS011;41060;47.510;8.680;2023-12-29T12:54:08;2.78;;;1.10;;
55170;SDS011;41060;47.510;8.680;2023-12-29T12:56:37;3.28;;;1.63;;
55170;SDS011;41060;47.510;8.680;2023-12-29T12:59:04;2.35;;;1.35;;
55170;SDS011;41060;47.510;8.680;2023-12-29T13:01:33;2.85;;;1.35;;
55170;SDS011;41060;47.510;8.680;2023-12-29T13:04:02;1.88;;;1.20;;
55170;SDS011;41060;47.510;8.680;2023-12-29T13:06:30;3.17;;;1.42;;
55170;SDS011;41060;47.510;8.680;2023-12-29T13:08:59;2.38;;;1.30;;
55170;SDS011;41060;47.510;8.680;2023-12-29T13:11:27;1.70;;;1.10;;
55170;SDS011;41060;47.510;8.680;2023-12-29T13:13:54;1.95;;;1.00;;
55170;SDS011;41060;47.510;8.680;2023-12-29T13:16:28;4.85;;;1.20;;
55170;SDS011;41060;47.510;8.680;2023-12-29T13:19:05;2.60;;;1.30;;
55170;SDS011;41060;47.510;8.680;2023-12-29T13:21:41;2.50;;;1.40;;
55170;SDS011;41060;47.510;8.680;2023-12-29T13:24:10;2.67;;;1.50;;
55170;SDS011;41060;47.510;8.680;2023-12-29T13:26:37;2.40;;;1.50;;
55170;SDS011;41060;47.510;8.680;2023-12-29T13:29:03;3.40;;;1.55;;
55170;SDS011;41060;47.510;8.680;2023-12-29T13:31:31;2.28;;;1.30;;
55170;SDS011;41060;47.510;8.680;2023-12-29T13:33:59;2.75;;;1.27;;
55170;SDS011;41060;47.510;8.680;2023-12-29T13:36:33;2.33;;;1.13;;
55170;SDS011;41060;47.510;8.680;2023-12-29T13:39:06;3.28;;;1.33;;
55170;SDS011;41060;47.510;8.680;2023-12-29T13:41:37;1.42;;;0.90;;
55170;SDS011;41060;47.510;8.680;2023-12-29T13:44:04;2.35;;;1.38;;
55170;SDS011;41060;47.510;8.680;2023-12-29T13:46:32;2.38;;;1.23;;
55170;SDS011;41060;47.510;8.680;2023-12-29T13:49:00;1.25;;;0.90;;
55170;SDS011;41060;47.510;8.680;2023-12-29T13:51:29;3.25;;;1.27;;
55170;SDS011;41060;47.510;8.680;2023-12-29T13:53:59;2.45;;;1.15;;
55170;SDS011;41060;47.510;8.680;2023-12-29T13:56:25;1.17;;;0.80;;
55170;SDS011;41060;47.510;8.680;2023-12-29T13:58:57;2.00;;;1.10;;
55170;SDS011;41060;47.510;8.680;2023-12-29T14:01:34;2.20;;;1.38;;
55170;SDS011;41060;47.510;8.680;2023-12-29T14:04:02;2.05;;;1.02;;
55170;SDS011;41060;47.510;8.680;2023-12-29T14:06:36;2.80;;;1.40;;
55170;SDS011;41060;47.510;8.680;2023-12-29T14:09:13;1.85;;;1.20;;
55170;SDS011;41060;47.510;8.680;2023-12-29T14:11:43;3.47;;;1.77;;
55170;SDS011;41060;47.510;8.680;2023-12-29T14:14:13;2.97;;;1.63;;
55170;SDS011;41060;47.510;8.680;2023-12-29T14:16:39;3.08;;;1.33;;
55170;SDS011;41060;47.510;8.680;2023-12-29T14:19:06;2.60;;;1.50;;
55170;SDS011;41060;47.510;8.680;2023-12-29T14:21:35;2.08;;;1.13;;
55170;SDS011;41060;47.510;8.680;2023-12-29T14:24:09;2.40;;;1.30;;
55170;SDS011;41060;47.510;8.680;2023-12-29T14:26:38;2.83;;;1.42;;
55170;SDS011;41060;47.510;8.680;2023-12-29T14:29:07;2.38;;;1.38;;
55170;SDS011;41060;47.510;8.680;2023-12-29T14:31:37;2.42;;;1.20;;
55170;SDS011;41060;47.510;8.680;2023-12-29T14:34:05;2.80;;;1.55;;
55170;SDS011;41060;47.510;8.680;2023-12-29T14:36:36;3.28;;;1.40;;
55170;SDS011;41060;47.510;8.680;2023-12-29T14:39:03;2.42;;;1.40;;
55170;SDS011;41060;47.510;8.680;2023-12-29T14:41:31;2.65;;;1.27;;
55170;SDS011;41060;47.510;8.680;2023-12-29T14:43:58;2.35;;;1.40;;
55170;SDS011;41060;47.510;8.680;2023-12-29T14:46:25;1.67;;;1.15;;
55170;SDS011;41060;47.510;8.680;2023-12-29T14:48:54;4.68;;;1.58;;
55170;SDS011;41060;47.510;8.680;2023-12-29T14:51:23;2.45;;;1.10;;
55170;SDS011;41060;47.510;8.680;2023-12-29T14:53:49;2.60;;;1.50;;
55170;SDS011;41060;47.510;8.680;2023-12-29T14:56:17;3.33;;;1.23;;